createdAt,value
2019-05-18T00:01:24.377Z,22.30
2019-05-18T00:03:52.918Z,20.30
2019-05-18T00:06:21.502Z,22.13
2019-05-18T00:08:50.115Z,21.07
2019-05-18T00:11:18.689Z,21.37
2019-05-18T00:13:47.276Z,21.25
2019-05-18T00:16:15.857Z,21.70
2019-05-18T00:18:44.522Z,20.12
2019-05-18T00:21:13.066Z,18.98
2019-05-18T00:23:42.020Z,17.92
2019-05-18T00:26:10.601Z,18.62
2019-05-18T00:28:39.179Z,16.15
2019-05-18T00:31:07.794Z,17.52
2019-05-18T00:33:36.339Z,18.65
2019-05-18T00:36:05.456Z,16.77
2019-05-18T00:38:33.973Z,17.57
2019-05-18T00:41:02.815Z,19.67
2019-05-18T00:43:31.391Z,20.80
2019-05-18T00:45:59.985Z,21.02
2019-05-18T00:48:28.490Z,18.60
2019-05-18T00:50:57.035Z,17.42
2019-05-18T00:53:25.671Z,18.12
2019-05-18T00:55:54.220Z,16.62
2019-05-18T00:58:22.734Z,19.42
2019-05-18T01:00:51.389Z,21.05
2019-05-18T01:03:19.940Z,16.48
2019-05-18T01:05:48.611Z,20.15
2019-05-18T01:08:17.196Z,23.18
2019-05-18T01:10:45.875Z,20.08
2019-05-18T01:13:14.404Z,20.08
2019-05-18T01:15:42.947Z,17.98
2019-05-18T01:18:11.490Z,20.32
2019-05-18T01:20:40.238Z,20.25
2019-05-18T01:23:09.386Z,17.07
2019-05-18T01:25:37.924Z,24.87
2019-05-18T01:28:06.438Z,18.35
2019-05-18T01:30:35.013Z,23.55
2019-05-18T01:33:04.658Z,22.10
2019-05-18T01:35:33.233Z,19.25
2019-05-18T01:38:01.956Z,19.45
2019-05-18T01:40:30.456Z,21.33
2019-05-18T01:42:58.968Z,29.12
2019-05-18T01:45:27.551Z,22.48
2019-05-18T01:47:56.095Z,20.40
2019-05-18T01:50:24.609Z,21.42
2019-05-18T01:52:53.215Z,20.02
2019-05-18T01:55:21.761Z,23.47
2019-05-18T01:57:50.342Z,20.45
2019-05-18T02:00:19.817Z,22.45
2019-05-18T02:02:48.338Z,24.27
2019-05-18T02:05:16.946Z,19.70
2019-05-18T02:07:46.185Z,22.30
2019-05-18T02:10:14.857Z,18.85
2019-05-18T02:12:43.437Z,22.50
2019-05-18T02:15:14.120Z,23.05
2019-05-18T02:17:42.708Z,19.02
2019-05-18T02:20:11.918Z,16.93
2019-05-18T02:22:40.503Z,22.15
2019-05-18T02:25:09.417Z,21.33
2019-05-18T02:27:37.946Z,21.17
2019-05-18T02:30:16.744Z,21.00
2019-05-18T02:32:41.850Z,25.10
2019-05-18T02:35:10.588Z,24.92
2019-05-18T02:37:39.195Z,33.10
2019-05-18T02:40:09.000Z,26.02
2019-05-18T02:42:37.543Z,27.35
2019-05-18T02:45:09.946Z,23.45
2019-05-18T02:47:38.478Z,21.97
2019-05-18T02:50:08.779Z,22.52
2019-05-18T02:52:37.322Z,21.95
2019-05-18T02:55:07.127Z,21.87
2019-05-18T02:57:35.655Z,25.27
2019-05-18T03:00:07.241Z,26.37
2019-05-18T03:02:35.984Z,27.82
2019-05-18T03:05:06.763Z,22.55
2019-05-18T03:07:35.447Z,22.48
2019-05-18T03:10:06.660Z,34.67
2019-05-18T03:12:35.655Z,27.60
2019-05-18T03:15:06.215Z,24.95
2019-05-18T03:17:34.813Z,27.25
2019-05-18T03:20:04.447Z,27.85
2019-05-18T03:22:32.960Z,29.90
2019-05-18T03:25:01.537Z,36.10
2019-05-18T03:27:30.115Z,24.23
2019-05-18T03:29:58.644Z,24.67
2019-05-18T03:32:27.117Z,28.47
2019-05-18T03:34:55.778Z,23.77
2019-05-18T03:37:24.395Z,27.17
2019-05-18T03:39:52.968Z,25.37
2019-05-18T03:42:21.477Z,27.75
2019-05-18T03:44:50.568Z,24.35
2019-05-18T03:47:19.080Z,27.65
2019-05-18T03:49:47.644Z,26.62
2019-05-18T03:52:16.282Z,28.45
2019-05-18T03:54:44.825Z,24.75
2019-05-18T03:57:13.305Z,30.40
2019-05-18T03:59:41.870Z,32.10
2019-05-18T04:02:10.411Z,30.10
2019-05-18T04:04:38.992Z,28.07
2019-05-18T04:07:07.739Z,30.92
2019-05-18T04:09:36.269Z,28.07
2019-05-18T04:12:04.815Z,30.62
2019-05-18T04:14:33.310Z,32.95
2019-05-18T04:17:01.812Z,30.10
2019-05-18T04:19:45.422Z,29.40
2019-05-18T04:22:00.603Z,29.37
2019-05-18T04:24:29.282Z,33.45
2019-05-18T04:26:57.871Z,34.43
2019-05-18T04:29:26.428Z,28.42
2019-05-18T04:31:54.956Z,29.27
2019-05-18T04:34:23.428Z,31.77
2019-05-18T04:36:51.924Z,33.88
2019-05-18T04:39:20.505Z,36.80
2019-05-18T04:41:49.077Z,33.23
2019-05-18T04:44:17.688Z,29.95
2019-05-18T04:46:46.252Z,29.82
2019-05-18T04:49:14.830Z,31.05
2019-05-18T04:51:43.403Z,31.77
2019-05-18T04:54:11.908Z,31.30
2019-05-18T04:56:42.866Z,34.67
2019-05-18T04:59:10.696Z,35.23
2019-05-18T05:01:39.362Z,34.45
2019-05-18T05:04:07.863Z,52.93
2019-05-18T05:06:36.720Z,43.98
2019-05-18T05:09:07.507Z,51.13
2019-05-18T05:11:36.081Z,49.75
2019-05-18T05:14:05.061Z,44.45
2019-05-18T05:16:33.637Z,51.13
2019-05-18T05:19:02.229Z,57.13
2019-05-18T05:21:31.366Z,63.90
2019-05-18T05:23:59.937Z,65.32
2019-05-18T05:26:28.560Z,62.53
2019-05-18T05:28:57.052Z,76.70
2019-05-18T05:31:25.514Z,75.45
2019-05-18T05:33:53.991Z,64.27
2019-05-18T05:36:22.578Z,50.55
2019-05-18T05:38:51.157Z,66.92
2019-05-18T05:41:19.822Z,67.12
2019-05-18T05:43:48.825Z,80.47
2019-05-18T05:46:17.405Z,79.72
2019-05-18T05:48:45.931Z,66.55
2019-05-18T05:51:14.510Z,70.10
2019-05-18T05:53:43.174Z,59.48
2019-05-18T05:56:11.753Z,60.55
2019-05-18T05:58:40.396Z,65.20
2019-05-18T06:01:08.867Z,65.30
2019-05-18T06:03:37.378Z,53.30
2019-05-18T06:06:05.984Z,53.78
2019-05-18T06:08:34.570Z,41.77
2019-05-18T06:11:03.138Z,45.80
2019-05-18T06:13:31.710Z,45.15
2019-05-18T06:16:00.232Z,37.63
2019-05-18T06:18:28.763Z,37.08
2019-05-18T06:20:57.289Z,40.35
2019-05-18T06:23:25.827Z,49.38
2019-05-18T06:25:54.349Z,48.23
2019-05-18T06:28:22.881Z,61.60
2019-05-18T06:30:51.411Z,77.58
2019-05-18T06:33:19.884Z,54.23
2019-05-18T06:35:48.471Z,46.77
2019-05-18T06:38:17.047Z,39.08
2019-05-18T06:40:45.630Z,35.90
2019-05-18T06:43:14.267Z,33.13
2019-05-18T06:45:42.828Z,28.20
2019-05-18T06:48:11.366Z,22.17
2019-05-18T06:50:39.966Z,22.60
2019-05-18T06:53:08.545Z,22.67
2019-05-18T06:55:37.731Z,22.07
2019-05-18T06:58:07.364Z,25.60
2019-05-18T07:00:35.896Z,22.32
2019-05-18T07:03:05.436Z,26.00
2019-05-18T07:05:34.296Z,19.10
2019-05-18T07:08:02.812Z,22.58
2019-05-18T07:10:31.676Z,23.73
2019-05-18T07:13:00.297Z,26.07
2019-05-18T07:15:28.826Z,20.62
2019-05-18T07:17:57.294Z,23.55
2019-05-18T07:20:25.854Z,23.87
2019-05-18T07:22:54.429Z,26.77
2019-05-18T07:25:22.958Z,23.65
2019-05-18T07:27:51.532Z,23.92
2019-05-18T07:30:20.067Z,26.42
2019-05-18T07:32:48.538Z,22.48
2019-05-18T07:35:17.724Z,23.75
2019-05-18T07:37:46.291Z,21.95
2019-05-18T07:40:15.037Z,19.45
2019-05-18T07:42:43.638Z,21.37
2019-05-18T07:45:13.614Z,20.10
2019-05-18T07:47:42.118Z,20.85
2019-05-18T07:50:12.215Z,21.50
2019-05-18T07:52:40.791Z,19.15
2019-05-18T07:55:09.372Z,17.82
2019-05-18T07:57:37.964Z,19.15
2019-05-18T08:00:07.834Z,17.45
2019-05-18T08:02:36.384Z,16.37
2019-05-18T08:05:08.910Z,22.17
2019-05-18T08:07:37.480Z,15.00
2019-05-18T08:10:08.724Z,14.95
2019-05-18T08:12:37.214Z,16.80
2019-05-18T08:15:08.287Z,15.40
2019-05-18T08:17:36.903Z,15.78
2019-05-18T08:20:07.526Z,14.93
2019-05-18T08:22:36.025Z,16.62
2019-05-18T08:25:07.586Z,11.53
2019-05-18T08:27:36.469Z,11.83
2019-05-18T08:30:08.532Z,12.18
2019-05-18T08:32:37.139Z,10.03
2019-05-18T08:35:06.660Z,10.03
2019-05-18T08:37:35.318Z,11.78
2019-05-18T08:40:06.084Z,9.85
2019-05-18T08:42:34.661Z,11.30
2019-05-18T08:45:04.976Z,13.00
2019-05-18T08:47:33.526Z,11.10
2019-05-18T08:50:02.099Z,16.67
2019-05-18T08:52:30.568Z,12.20
2019-05-18T08:54:59.065Z,15.28
2019-05-18T08:57:27.666Z,16.87
2019-05-18T08:59:56.259Z,11.63
2019-05-18T09:02:25.639Z,11.00
2019-05-18T09:04:54.155Z,11.43
2019-05-18T09:07:22.765Z,11.38
2019-05-18T09:09:51.265Z,18.40
2019-05-18T09:12:20.000Z,14.18
2019-05-18T09:14:48.551Z,12.20
2019-05-18T09:17:17.130Z,11.25
2019-05-18T09:19:45.693Z,13.58
2019-05-18T09:22:22.904Z,13.65
2019-05-18T09:24:44.520Z,13.25
2019-05-18T09:27:13.137Z,16.57
2019-05-18T09:29:41.671Z,10.18
2019-05-18T09:32:10.207Z,11.78
2019-05-18T09:34:38.913Z,9.60
2019-05-18T09:37:07.468Z,11.65
2019-05-18T09:39:36.029Z,10.43
2019-05-18T09:42:05.472Z,8.38
2019-05-18T09:44:34.020Z,10.43
2019-05-18T09:47:02.622Z,9.18
2019-05-18T09:49:31.383Z,10.95
2019-05-18T09:51:59.838Z,8.00
2019-05-18T09:54:28.296Z,9.20
2019-05-18T09:56:56.820Z,9.83
2019-05-18T09:59:25.472Z,13.83
2019-05-18T10:01:54.062Z,8.83
2019-05-18T10:04:22.635Z,8.75
2019-05-18T10:06:51.163Z,9.08
2019-05-18T10:09:19.630Z,9.88
2019-05-18T10:11:48.244Z,7.62
2019-05-18T10:14:16.764Z,8.45
2019-05-18T10:16:45.252Z,7.40
2019-05-18T10:19:13.845Z,7.45
2019-05-18T10:21:42.417Z,11.85
2019-05-18T10:24:10.981Z,9.28
2019-05-18T10:26:39.567Z,8.75
2019-05-18T10:29:08.053Z,9.08
2019-05-18T10:31:36.586Z,13.90
2019-05-18T10:34:05.394Z,13.22
2019-05-18T10:36:33.914Z,9.68
2019-05-18T10:39:02.423Z,13.38
2019-05-18T10:41:30.904Z,8.80
2019-05-18T10:43:59.409Z,11.18
2019-05-18T10:46:27.974Z,8.45
2019-05-18T10:48:56.582Z,13.25
2019-05-18T10:51:25.124Z,13.28
2019-05-18T10:53:53.648Z,7.80
2019-05-18T10:56:22.191Z,10.65
2019-05-18T10:58:50.674Z,13.45
2019-05-18T11:01:19.498Z,9.70
2019-05-18T11:03:50.169Z,8.90
2019-05-18T11:06:18.788Z,7.75
2019-05-18T11:08:47.321Z,9.20
2019-05-18T11:11:15.973Z,11.15
2019-05-18T11:13:44.503Z,10.75
2019-05-18T11:16:12.998Z,7.72
2019-05-18T11:18:43.720Z,11.08
2019-05-18T11:21:12.179Z,9.15
2019-05-18T11:23:44.176Z,11.68
2019-05-18T11:26:10.902Z,7.03
2019-05-18T11:28:39.533Z,10.40
2019-05-18T11:31:08.104Z,10.13
2019-05-18T11:33:36.835Z,9.30
2019-05-18T11:36:05.390Z,9.95
2019-05-18T11:38:33.937Z,9.90
2019-05-18T11:41:02.907Z,12.55
2019-05-18T11:43:31.452Z,11.80
2019-05-18T11:45:59.927Z,10.30
2019-05-18T11:48:28.501Z,13.38
2019-05-18T11:50:57.051Z,12.50
2019-05-18T11:53:25.686Z,17.07
2019-05-18T11:55:54.279Z,11.80
2019-05-18T11:58:22.850Z,11.25
2019-05-18T12:00:51.487Z,10.13
2019-05-18T12:03:20.096Z,14.18
2019-05-18T12:05:48.653Z,8.48
2019-05-18T12:08:17.193Z,10.18
2019-05-18T12:10:45.694Z,10.43
2019-05-18T12:13:14.196Z,10.60
2019-05-18T12:15:42.738Z,8.88
2019-05-18T12:18:11.316Z,11.38
2019-05-18T12:20:39.892Z,6.35
2019-05-18T12:23:09.064Z,6.15
2019-05-18T12:25:37.805Z,6.62
2019-05-18T12:28:06.376Z,7.62
2019-05-18T12:30:34.934Z,8.33
2019-05-18T12:33:05.291Z,7.92
2019-05-18T12:35:33.823Z,11.00
2019-05-18T12:38:02.352Z,6.95
2019-05-18T12:40:30.908Z,8.80
2019-05-18T12:42:59.400Z,9.70
2019-05-18T12:45:28.407Z,13.78
2019-05-18T12:47:57.009Z,8.45
2019-05-18T12:50:27.536Z,15.00
2019-05-18T12:52:56.121Z,16.35
2019-05-18T12:55:25.129Z,10.35
2019-05-18T12:57:53.632Z,10.23
2019-05-18T13:00:22.837Z,13.75
2019-05-18T13:02:51.427Z,12.23
2019-05-18T13:05:20.354Z,14.05
2019-05-18T13:07:48.899Z,17.82
2019-05-18T13:10:18.856Z,15.68
2019-05-18T13:12:47.403Z,17.32
2019-05-18T13:15:17.756Z,15.83
2019-05-18T13:17:46.356Z,14.58
2019-05-18T13:20:15.744Z,19.65
2019-05-18T13:22:44.279Z,17.00
2019-05-18T13:25:14.964Z,15.50
2019-05-18T13:27:43.440Z,17.35
2019-05-18T13:30:14.174Z,16.27
2019-05-18T13:32:42.745Z,18.90
2019-05-18T13:35:12.477Z,18.25
2019-05-18T13:37:41.039Z,18.98
2019-05-18T13:40:10.768Z,16.00
2019-05-18T13:42:39.409Z,18.80
2019-05-18T13:45:09.981Z,26.07
2019-05-18T13:47:38.517Z,37.95
2019-05-18T13:50:07.907Z,24.15
2019-05-18T13:52:36.479Z,20.45
2019-05-18T13:55:07.349Z,16.12
2019-05-18T13:57:36.267Z,15.88
2019-05-18T14:00:09.118Z,17.60
2019-05-18T14:02:37.864Z,15.20
2019-05-18T14:05:07.457Z,19.77
2019-05-18T14:07:36.031Z,14.50
2019-05-18T14:10:12.227Z,18.23
2019-05-18T14:12:39.477Z,16.30
2019-05-18T14:15:09.223Z,20.27
2019-05-18T14:17:37.851Z,19.57
2019-05-18T14:20:07.801Z,14.50
2019-05-18T14:22:36.406Z,12.98
2019-05-18T14:25:18.795Z,15.83
2019-05-18T14:27:39.730Z,17.25
2019-05-18T14:30:09.137Z,16.02
2019-05-18T14:32:37.714Z,14.68
2019-05-18T14:35:07.720Z,15.53
2019-05-18T14:37:36.261Z,14.47
2019-05-18T14:40:07.077Z,20.68
2019-05-18T14:42:35.584Z,20.30
2019-05-18T14:45:06.465Z,21.75
2019-05-18T14:47:34.997Z,12.93
2019-05-18T14:50:04.506Z,11.50
2019-05-18T14:52:33.098Z,11.40
2019-05-18T14:55:01.698Z,10.58
2019-05-18T14:57:30.305Z,14.45
2019-05-18T15:00:02.173Z,12.20
2019-05-18T15:02:29.079Z,8.70
2019-05-18T15:04:57.547Z,9.00
2019-05-18T15:07:26.081Z,9.75
2019-05-18T15:09:54.688Z,9.43
2019-05-18T15:12:23.231Z,9.63
2019-05-18T15:14:51.695Z,9.95
2019-05-18T15:17:20.298Z,10.28
2019-05-18T15:19:48.928Z,10.98
2019-05-18T15:22:17.506Z,10.20
2019-05-18T15:24:46.082Z,11.45
2019-05-18T15:27:14.636Z,10.93
2019-05-18T15:29:43.212Z,11.20
2019-05-18T15:32:11.771Z,14.70
2019-05-18T15:34:40.429Z,11.22
2019-05-18T15:37:09.055Z,10.63
2019-05-18T15:39:38.020Z,12.20
2019-05-18T15:42:06.673Z,12.85
2019-05-18T15:44:35.382Z,17.02
2019-05-18T15:47:04.196Z,20.75
2019-05-18T15:49:32.736Z,17.32
2019-05-18T15:52:01.313Z,19.77
2019-05-18T15:54:29.914Z,16.45
2019-05-18T15:56:58.414Z,14.23
2019-05-18T15:59:26.969Z,10.85
2019-05-18T16:01:55.483Z,14.23
2019-05-18T16:04:24.043Z,12.85
2019-05-18T16:06:52.587Z,11.75
2019-05-18T16:09:21.152Z,12.75
2019-05-18T16:11:49.756Z,12.05
2019-05-18T16:14:18.374Z,19.05
2019-05-18T16:16:47.061Z,13.22
2019-05-18T16:19:16.122Z,16.52
2019-05-18T16:21:44.668Z,14.40
2019-05-18T16:24:13.176Z,13.43
2019-05-18T16:26:41.721Z,15.48
2019-05-18T16:29:10.216Z,14.23
2019-05-18T16:31:38.881Z,14.98
2019-05-18T16:34:07.415Z,13.78
2019-05-18T16:36:35.919Z,14.18
2019-05-18T16:39:06.895Z,15.80
2019-05-18T16:41:35.401Z,14.53
2019-05-18T16:44:04.606Z,13.45
2019-05-18T16:46:33.191Z,11.50
2019-05-18T16:49:01.696Z,13.78
2019-05-18T16:51:30.215Z,15.58
2019-05-18T16:53:59.584Z,13.43
2019-05-18T16:56:34.949Z,15.18
2019-05-18T16:58:58.349Z,14.40
2019-05-18T17:01:26.958Z,20.62
2019-05-18T17:03:55.495Z,15.55
2019-05-18T17:06:25.605Z,19.52
2019-05-18T17:08:54.555Z,21.82
2019-05-18T17:11:23.182Z,18.87
2019-05-18T17:13:51.752Z,19.42
2019-05-18T17:16:20.737Z,15.03
2019-05-18T17:18:49.264Z,19.15
2019-05-18T17:21:17.731Z,19.62
2019-05-18T17:23:46.342Z,20.97
2019-05-18T17:26:14.914Z,18.85
2019-05-18T17:28:43.725Z,20.25
2019-05-18T17:31:12.282Z,17.98
2019-05-18T17:33:40.858Z,18.87
2019-05-18T17:36:09.426Z,15.98
2019-05-18T17:38:38.076Z,17.95
2019-05-18T17:41:06.853Z,15.60
2019-05-18T17:43:35.461Z,19.65
2019-05-18T17:46:04.140Z,19.82
2019-05-18T17:48:32.697Z,17.37
2019-05-18T17:51:01.269Z,15.20
2019-05-18T17:53:29.934Z,18.67
2019-05-18T17:55:58.484Z,16.48
2019-05-18T17:58:26.990Z,16.90
2019-05-18T18:00:55.704Z,17.57
2019-05-18T18:03:24.266Z,17.65
2019-05-18T18:05:52.740Z,20.52
2019-05-18T18:08:21.320Z,21.45
2019-05-18T18:10:49.903Z,24.85
2019-05-18T18:13:18.436Z,18.05
2019-05-18T18:15:46.939Z,17.87
2019-05-18T18:18:15.411Z,22.30
2019-05-18T18:20:44.054Z,20.23
2019-05-18T18:23:12.706Z,18.95
2019-05-18T18:25:41.279Z,23.42
2019-05-18T18:28:09.892Z,24.47
2019-05-18T18:30:38.455Z,26.95
2019-05-18T18:33:07.012Z,21.87
2019-05-18T18:35:35.584Z,26.85
2019-05-18T18:38:04.163Z,21.02
2019-05-18T18:40:32.626Z,21.17
2019-05-18T18:43:01.130Z,19.07
2019-05-18T18:45:30.234Z,22.22
2019-05-18T18:47:58.749Z,20.00
2019-05-18T18:50:27.358Z,20.12
2019-05-18T18:52:55.887Z,18.98
2019-05-18T18:55:24.472Z,24.85
2019-05-18T18:57:53.003Z,24.47
2019-05-18T19:00:21.668Z,24.12
2019-05-18T19:02:50.227Z,22.40
2019-05-18T19:05:19.108Z,21.33
2019-05-18T19:07:47.684Z,23.07
2019-05-18T19:10:17.434Z,26.10
2019-05-18T19:12:46.012Z,25.90
2019-05-18T19:15:15.120Z,27.07
2019-05-18T19:17:43.587Z,22.00
2019-05-18T19:20:12.858Z,21.55
2019-05-18T19:22:41.411Z,23.30
2019-05-18T19:25:11.681Z,27.65
2019-05-18T19:27:52.728Z,26.60
2019-05-18T19:30:11.239Z,22.07
2019-05-18T19:32:39.829Z,22.98
2019-05-18T19:35:09.523Z,24.57
2019-05-18T19:37:38.452Z,30.70
2019-05-18T19:40:07.568Z,25.35
2019-05-18T19:42:36.195Z,26.20
2019-05-18T19:45:09.882Z,25.85
2019-05-18T19:47:38.410Z,21.97
2019-05-18T19:50:08.757Z,23.67
2019-05-18T19:52:37.360Z,24.70
2019-05-18T19:55:09.404Z,23.60
2019-05-18T19:57:38.092Z,24.23
2019-05-18T20:00:07.469Z,25.02
2019-05-18T20:02:36.107Z,26.85
2019-05-18T20:05:08.943Z,28.67
2019-05-18T20:07:37.680Z,24.70
2019-05-18T20:10:08.375Z,25.08
2019-05-18T20:12:36.927Z,32.42
2019-05-18T20:15:09.541Z,32.73
2019-05-18T20:17:37.793Z,31.95
2019-05-18T20:20:09.110Z,27.00
2019-05-18T20:22:37.844Z,24.92
2019-05-18T20:25:08.144Z,27.02
2019-05-18T20:27:36.745Z,22.75
2019-05-18T20:30:10.584Z,26.68
2019-05-18T20:32:40.913Z,27.25
2019-05-18T20:35:09.956Z,26.75
2019-05-18T20:37:38.503Z,26.15
2019-05-18T20:40:07.657Z,27.87
2019-05-18T20:42:37.665Z,26.35
2019-05-18T20:45:07.189Z,26.87
2019-05-18T20:47:35.771Z,25.72
2019-05-18T20:50:05.778Z,28.15
2019-05-18T20:52:34.332Z,23.67
2019-05-18T20:55:02.872Z,23.98
2019-05-18T20:57:31.504Z,22.70
2019-05-18T21:00:00.117Z,26.97
2019-05-18T21:02:28.660Z,27.17
2019-05-18T21:04:57.370Z,27.90
2019-05-18T21:07:25.968Z,25.32
2019-05-18T21:09:54.519Z,28.47
2019-05-18T21:12:23.123Z,27.95
2019-05-18T21:14:51.708Z,24.67
2019-05-18T21:17:20.280Z,25.60
2019-05-18T21:19:48.983Z,27.37
2019-05-18T21:22:17.527Z,32.80
2019-05-18T21:24:46.098Z,27.75
2019-05-18T21:27:14.676Z,28.50
2019-05-18T21:29:43.340Z,32.83
2019-05-18T21:32:11.917Z,32.93
2019-05-18T21:34:40.450Z,32.23
2019-05-18T21:37:08.977Z,33.80
2019-05-18T21:39:37.955Z,36.23
2019-05-18T21:42:06.457Z,37.00
2019-05-18T21:44:35.263Z,36.88
2019-05-18T21:47:04.304Z,41.02
2019-05-18T21:49:32.873Z,46.95
2019-05-18T21:52:01.540Z,34.83
2019-05-18T21:54:30.087Z,37.28
2019-05-18T21:56:58.698Z,41.68
2019-05-18T21:59:27.470Z,45.78
2019-05-18T22:01:56.203Z,38.53
2019-05-18T22:04:24.839Z,34.75
2019-05-18T22:06:53.845Z,31.10
2019-05-18T22:09:22.485Z,30.32
2019-05-18T22:11:51.077Z,32.55
2019-05-18T22:14:19.629Z,41.15
2019-05-18T22:16:48.281Z,34.27
2019-05-18T22:19:16.819Z,32.15
2019-05-18T22:21:45.352Z,37.48
2019-05-18T22:24:14.215Z,36.17
2019-05-18T22:26:42.765Z,35.20
2019-05-18T22:29:11.375Z,43.42
2019-05-18T22:31:39.911Z,42.30
2019-05-18T22:34:08.451Z,41.20
2019-05-18T22:36:37.002Z,37.83
2019-05-18T22:39:08.630Z,37.90
2019-05-18T22:41:37.161Z,38.38
2019-05-18T22:44:05.828Z,39.10
2019-05-18T22:46:34.368Z,35.83
2019-05-18T22:49:02.875Z,38.92
2019-05-18T22:51:31.515Z,42.45
2019-05-18T22:54:00.092Z,45.17
2019-05-18T22:56:28.663Z,41.18
2019-05-18T22:58:57.260Z,38.85
2019-05-18T23:01:25.808Z,45.48
2019-05-18T23:03:54.452Z,36.45
2019-05-18T23:06:23.053Z,37.83
2019-05-18T23:08:51.626Z,35.05
2019-05-18T23:11:20.185Z,38.90
2019-05-18T23:13:48.824Z,38.65
2019-05-18T23:16:17.339Z,38.55
2019-05-18T23:18:56.540Z,36.55
2019-05-18T23:21:16.042Z,34.85
2019-05-18T23:23:44.519Z,42.75
2019-05-18T23:26:13.026Z,36.58
2019-05-18T23:28:41.599Z,34.25
2019-05-18T23:31:10.055Z,36.33
2019-05-18T23:33:38.556Z,33.88
2019-05-18T23:36:07.127Z,38.02
2019-05-18T23:38:35.602Z,38.53
2019-05-18T23:41:04.178Z,38.70
2019-05-18T23:43:33.213Z,42.93
2019-05-18T23:46:01.780Z,38.25
2019-05-18T23:48:30.349Z,39.65
2019-05-18T23:50:58.930Z,36.40
2019-05-18T23:53:27.542Z,31.37
2019-05-18T23:55:56.003Z,36.30
2019-05-18T23:58:24.499Z,33.58
